Time;durP1;ratioP1;P1;durP2;ratioP2;P2;SDS_P1;SDS_P2;PMS_P1;PMS_P2;Temp;Humidity;BMP_temperature;BMP_pressure;BME280_temperature;BME280_humidity;BME280_pressure;Samples;Min_cycle;Max_cycle;Signal;HPM_P1;HPM_P2
2023/08/29 00:02:06;;;;;;;15.83;13.50;;;;;;;26.35;62.98;99599.32;1733557;81;21015;-70
2023/08/29 00:04:35;;;;;;;17.87;13.55;;;;;;;26.32;63.20;99600.51;1733325;83;21379;-70
2023/08/29 00:07:05;;;;;;;16.10;13.90;;;;;;;26.28;63.38;99598.91;1733131;81;21913;-70
2023/08/29 00:09:35;;;;;;;21.12;13.48;;;;;;;26.26;63.62;99595.60;1733497;83;21015;-69
2023/08/29 00:12:06;;;;;;;16.32;13.98;;;;;;;26.18;63.82;99598.61;1733367;82;21074;-69
2023/08/29 00:14:35;;;;;;;15.40;13.68;;;;;;;26.10;64.10;99592.94;1733093;82;21479;-70
2023/08/29 00:17:05;;;;;;;17.62;13.70;;;;;;;26.02;64.33;99595.95;1712785;83;21501;-69
2023/08/29 00:19:34;;;;;;;18.27;13.80;;;;;;;25.99;64.58;99591.52;1733125;82;20996;-69
2023/08/29 00:22:04;;;;;;;16.60;13.00;;;;;;;25.94;65.01;99589.66;1733332;83;21094;-70
2023/08/29 00:24:33;;;;;;;18.57;13.88;;;;;;;25.89;65.24;99589.22;1733200;81;21548;-70
2023/08/29 00:27:02;;;;;;;18.15;13.43;;;;;;;25.82;65.62;99586.60;1733200;81;21094;-70
2023/08/29 00:29:32;;;;;;;17.15;14.53;;;;;;;25.75;65.91;99582.84;1733124;83;21034;-70
2023/08/29 00:32:01;;;;;;;17.85;14.28;;;;;;;25.67;66.13;99575.19;1733353;83;21050;-71
2023/08/29 00:34:30;;;;;;;18.15;13.83;;;;;;;25.64;66.29;99573.55;1733119;81;21035;-69
2023/08/29 00:37:00;;;;;;;18.57;13.83;;;;;;;25.62;66.60;99571.06;1733192;83;21007;-69
2023/08/29 00:39:29;;;;;;;19.37;14.30;;;;;;;25.60;66.77;99578.39;1733529;83;21118;-70
2023/08/29 00:41:59;;;;;;;16.65;14.05;;;;;;;25.60;66.98;99571.38;1733344;81;21516;-70
2023/08/29 00:44:30;;;;;;;17.32;13.25;;;;;;;25.57;67.25;99576.80;1733142;81;21058;-70
2023/08/29 00:46:59;;;;;;;20.55;13.93;;;;;;;25.52;67.33;99577.75;1733402;83;21471;-68
2023/08/29 00:49:28;;;;;;;20.05;14.50;;;;;;;25.48;67.36;99575.89;1733200;83;21271;-69
2023/08/29 00:51:59;;;;;;;18.05;13.93;;;;;;;25.48;67.47;99573.92;1733484;83;21078;-69
2023/08/29 00:54:28;;;;;;;19.10;14.80;;;;;;;25.49;67.63;99574.18;1733344;81;21435;-69
2023/08/29 00:56:57;;;;;;;16.90;14.55;;;;;;;25.50;67.70;99574.44;1733151;81;21086;-69
2023/08/29 00:59:26;;;;;;;19.98;14.40;;;;;;;25.50;67.74;99577.23;1733218;83;21003;-70
2023/08/29 01:01:58;;;;;;;18.87;14.93;;;;;;;25.50;67.87;99584.83;1733487;83;21074;-69
2023/08/29 01:04:27;;;;;;;17.85;14.73;;;;;;;25.46;68.13;99583.23;1733179;83;21043;-70
2023/08/29 01:06:57;;;;;;;23.70;15.63;;;;;;;25.41;68.38;99579.71;1733483;81;20979;-69
2023/08/29 01:09:25;;;;;;;33.48;16.32;;;;;;;25.34;68.58;99573.10;1733183;81;21125;-68
2023/08/29 01:12:12;;;;;;;29.37;16.75;;;;;;;25.31;68.77;99580.74;1733416;83;21043;-69
2023/08/29 01:14:54;;;;;;;25.62;16.45;;;;;;;25.31;68.85;99582.14;1733496;81;21050;-68
2023/08/29 01:17:33;;;;;;;25.10;15.72;;;;;;;25.30;68.96;99583.29;1731453;83;21447;-69
2023/08/29 01:20:05;;;;;;;21.10;15.25;;;;;;;25.31;68.99;99583.55;1733454;83;21031;-69
2023/08/29 01:22:59;;;;;;;22.32;15.40;;;;;;;25.31;69.23;99590.56;1733309;83;21035;-69
2023/08/29 01:25:47;;;;;;;20.32;15.05;;;;;;;25.27;69.36;99587.55;1731577;81;21019;-69
2023/08/29 01:28:16;;;;;;;21.27;15.00;;;;;;;25.25;69.50;99596.86;1723156;81;21047;-70
2023/08/29 01:30:45;;;;;;;22.85;14.70;;;;;;;25.23;69.75;99594.11;1733293;81;21444;-69
2023/08/29 01:33:14;;;;;;;20.80;15.30;;;;;;;25.22;69.88;99595.25;1733445;81;21019;-69
2023/08/29 01:35:46;;;;;;;19.80;15.80;;;;;;;25.21;69.94;99598.63;1733234;83;21562;-69
2023/08/29 01:38:19;;;;;;;21.60;15.70;;;;;;;25.20;69.97;99594.73;1733382;83;21435;-69
2023/08/29 01:40:48;;;;;;;25.30;15.45;;;;;;;25.21;69.96;99599.20;1733228;81;21050;-70
2023/08/29 01:43:17;;;;;;;21.30;15.18;;;;;;;25.22;70.02;99606.47;1733420;81;21039;-69
2023/08/29 01:45:47;;;;;;;21.23;14.25;;;;;;;25.21;70.10;99598.63;1733356;81;21065;-68
2023/08/29 01:48:17;;;;;;;20.08;14.90;;;;;;;25.23;70.06;99598.31;1733198;83;21528;-69
2023/08/29 01:50:47;;;;;;;19.27;15.20;;;;;;;25.21;70.05;99596.39;1733560;83;21063;-70
2023/08/29 01:53:17;;;;;;;17.50;14.20;;;;;;;25.22;70.20;99590.47;1733249;81;21455;-69
2023/08/29 01:55:47;;;;;;;19.80;14.58;;;;;;;25.24;70.24;99581.75;1733394;81;21023;-69
2023/08/29 01:58:16;;;;;;;18.62;14.80;;;;;;;25.24;70.27;99583.98;1733354;81;21030;-69
2023/08/29 02:00:46;;;;;;;18.67;15.05;;;;;;;25.22;70.31;99586.27;1733401;83;21102;-69
2023/08/29 02:03:15;;;;;;;17.15;14.50;;;;;;;25.19;70.25;99581.29;1733388;83;21031;-68
2023/08/29 02:05:44;;;;;;;21.37;15.18;;;;;;;25.17;70.26;99586.38;1733175;82;21099;-70
2023/08/29 02:08:13;;;;;;;17.90;13.93;;;;;;;25.18;70.28;99595.05;1733336;81;21023;-70
2023/08/29 02:10:42;;;;;;;20.30;15.10;;;;;;;25.19;70.40;99595.88;1733186;83;21463;-70
2023/08/29 02:13:12;;;;;;;18.50;14.30;;;;;;;25.19;70.41;99587.47;1733375;81;21055;-69
2023/08/29 02:15:41;;;;;;;20.68;15.05;;;;;;;25.19;70.40;99596.71;1733410;81;21063;-69
2023/08/29 02:18:09;;;;;;;20.65;14.07;;;;;;;25.19;70.57;99592.50;1733187;81;21011;-67
2023/08/29 02:20:40;;;;;;;18.70;14.58;;;;;;;25.20;70.70;99590.53;1733403;83;21054;-69
2023/08/29 02:23:11;;;;;;;23.38;14.75;;;;;;;25.18;70.70;99595.63;1713340;83;20999;-69
2023/08/29 02:25:41;;;;;;;19.27;15.38;;;;;;;25.16;70.68;99587.53;1733111;83;21058;-69
2023/08/29 02:28:09;;;;;;;19.20;14.83;;;;;;;25.17;70.69;99585.55;1733220;81;21126;-68
2023/08/29 02:30:38;;;;;;;19.40;14.80;;;;;;;25.15;70.82;99590.64;1712488;83;21091;-69
2023/08/29 02:33:09;;;;;;;20.08;14.85;;;;;;;25.12;70.93;99595.48;1733387;83;21062;-70
2023/08/29 02:35:38;;;;;;;19.52;14.20;;;;;;;25.12;71.01;99601.91;1733398;83;21062;-69
2023/08/29 02:38:08;;;;;;;18.27;14.10;;;;;;;25.08;71.12;99599.48;1733350;83;21011;-71
2023/08/29 02:40:39;;;;;;;18.15;14.38;;;;;;;25.05;71.22;99600.67;1733443;83;21058;-70
2023/08/29 02:43:13;;;;;;;21.60;14.60;;;;;;;25.03;71.39;99604.37;1733067;83;21074;-70
2023/08/29 02:45:43;;;;;;;20.80;15.30;;;;;;;25.01;71.55;99602.45;1733095;81;21047;-69
2023/08/29 02:48:12;;;;;;;22.05;15.08;;;;;;;24.99;71.74;99600.53;1733201;81;21011;-70
2023/08/29 02:50:44;;;;;;;21.45;15.38;;;;;;;24.96;71.87;99597.17;1733195;82;21509;-68
2023/08/29 02:53:13;;;;;;;23.07;15.15;;;;;;;24.91;72.00;99594.48;1733438;81;21483;-70
2023/08/29 02:55:43;;;;;;;20.32;14.78;;;;;;;24.88;72.21;99602.68;1733351;81;21094;-70
2023/08/29 02:58:12;;;;;;;18.65;15.48;;;;;;;24.84;72.40;99599.67;1733355;83;21007;-73
2023/08/29 03:00:43;;;;;;;20.20;15.10;;;;;;;24.79;72.58;99608.19;1733407;83;21059;-69
2023/08/29 03:03:13;;;;;;;21.12;15.10;;;;;;;24.74;72.84;99605.48;1733232;82;21086;-68
2023/08/29 03:05:43;;;;;;;20.02;14.73;;;;;;;24.71;73.13;99603.30;1733199;83;20987;-68
2023/08/29 03:08:12;;;;;;;18.82;14.23;;;;;;;24.67;73.30;99602.23;1733270;82;20983;-69
2023/08/29 03:10:41;;;;;;;20.37;14.18;;;;;;;24.63;73.54;99604.00;1733191;82;21015;-69
2023/08/29 03:13:11;;;;;;;18.15;14.18;;;;;;;24.61;73.84;99605.70;1733255;83;21493;-70
2023/08/29 03:15:40;;;;;;;17.92;13.80;;;;;;;24.58;74.14;99609.70;1742649;81;21074;-71
2023/08/29 03:18:10;;;;;;;16.67;13.95;;;;;;;24.55;74.42;99614.52;1757408;80;21010;-70
2023/08/29 03:20:40;;;;;;;18.75;14.75;;;;;;;24.49;74.72;99614.36;1757198;80;21029;-70
2023/08/29 03:23:11;;;;;;;19.77;14.58;;;;;;;24.43;75.03;99612.80;1757336;82;21453;-69
2023/08/29 03:25:40;;;;;;;19.20;14.73;;;;;;;24.36;75.30;99623.00;1757558;80;21453;-71
2023/08/29 03:28:10;;;;;;;20.95;16.25;;;;;;;24.33;75.63;99622.21;1757265;80;21061;-68
2023/08/29 03:30:39;;;;;;;22.17;16.00;;;;;;;24.28;75.91;99627.33;1757412;82;21002;-68
2023/08/29 03:33:09;;;;;;;18.77;14.33;;;;;;;24.28;76.08;99624.53;1730620;82;21065;-70
2023/08/29 03:35:38;;;;;;;20.62;14.60;;;;;;;24.29;76.14;99623.97;1757400;80;21463;-67
2023/08/29 03:38:07;;;;;;;20.35;15.05;;;;;;;24.29;76.25;99630.39;1757277;80;21064;-69
2023/08/29 03:40:39;;;;;;;23.87;14.43;;;;;;;24.30;76.32;99634.86;1757194;82;21576;-70
2023/08/29 03:43:08;;;;;;;20.92;15.10;;;;;;;24.33;76.40;99635.64;1757340;82;21073;-68
2023/08/29 03:45:37;;;;;;;18.62;14.50;;;;;;;24.34;76.38;99634.50;1757328;80;21081;-69
2023/08/29 03:48:07;;;;;;;18.17;14.95;;;;;;;24.36;76.35;99641.77;1757263;82;21442;-69
2023/08/29 03:50:38;;;;;;;18.85;15.18;;;;;;;24.37;76.37;99642.03;1754719;82;21062;-69
2023/08/29 03:53:07;;;;;;;19.27;14.85;;;;;;;24.33;76.45;99644.61;1757468;80;20990;-69
2023/08/29 03:55:37;;;;;;;20.97;15.25;;;;;;;24.32;76.64;99643.78;1757495;82;21480;-69
2023/08/29 03:58:08;;;;;;;20.52;16.20;;;;;;;24.36;76.67;99644.56;1757209;80;21050;-69
2023/08/29 04:00:37;;;;;;;19.67;15.38;;;;;;;24.39;76.68;99648.16;1757201;82;21032;-69
2023/08/29 04:03:07;;;;;;;20.70;15.38;;;;;;;24.40;76.72;99640.84;1757184;80;21042;-71
2023/08/29 04:05:37;;;;;;;19.35;15.38;;;;;;;24.43;76.79;99642.20;1757332;81;21057;-70
2023/08/29 04:08:07;;;;;;;18.87;15.98;;;;;;;24.43;76.75;99633.80;1757308;82;21054;-72
2023/08/29 04:10:39;;;;;;;23.52;16.20;;;;;;;24.45;76.78;99635.14;1730348;82;21042;-69
2023/08/29 04:13:10;;;;;;;23.80;15.72;;;;;;;24.49;76.86;99640.97;1757372;82;21038;-71
2023/08/29 04:15:40;;;;;;;26.45;16.82;;;;;;;24.51;76.89;99637.28;1751359;82;21086;-69
2023/08/29 04:18:14;;;;;;;25.62;16.00;;;;;;;24.54;76.81;99638.89;1733198;83;21007;-69
2023/08/29 04:20:46;;;;;;;24.50;16.57;;;;;;;24.61;76.82;99641.30;1733315;82;21027;-69
2023/08/29 04:23:17;;;;;;;23.77;16.12;;;;;;;24.63;76.83;99651.05;1733342;83;21019;-69
2023/08/29 04:25:46;;;;;;;27.42;17.07;;;;;;;24.68;76.82;99649.29;1733087;81;21494;-70
2023/08/29 04:28:20;;;;;;;24.35;16.52;;;;;;;24.75;76.77;99662.36;1733087;83;21450;-70
2023/08/29 04:30:46;;;;;;;22.90;16.67;;;;;;;24.80;76.59;99664.48;1733211;81;21012;-69
2023/08/29 04:33:15;;;;;;;30.70;17.42;;;;;;;24.84;76.40;99666.93;1733295;81;21027;-70
2023/08/29 04:35:44;;;;;;;24.02;16.93;;;;;;;24.89;76.15;99668.80;1733006;81;21416;-70
2023/08/29 04:38:13;;;;;;;33.53;18.17;;;;;;;24.94;76.02;99662.52;1733188;81;21443;-70
2023/08/29 04:40:42;;;;;;;23.42;17.67;;;;;;;25.00;75.75;99667.48;1733119;83;21018;-70
2023/08/29 04:43:12;;;;;;;27.58;18.57;;;;;;;25.08;75.56;99668.73;1733061;83;21501;-69
2023/08/29 04:45:42;;;;;;;26.52;18.12;;;;;;;25.17;75.48;99666.86;1733243;81;21039;-70
2023/08/29 04:48:11;;;;;;;24.25;19.15;;;;;;;25.22;75.37;99665.35;1733156;83;21023;-70
2023/08/29 04:50:40;;;;;;;28.23;20.32;;;;;;;25.29;75.26;99661.55;1712761;83;21074;-69
2023/08/29 04:53:09;;;;;;;32.20;18.98;;;;;;;25.35;75.10;99658.06;1733280;83;21051;-68
2023/08/29 04:55:39;;;;;;;29.07;18.75;;;;;;;25.42;74.99;99648.69;1733307;81;21022;-70
2023/08/29 04:58:08;;;;;;;26.20;18.10;;;;;;;25.50;74.92;99649.34;1733112;81;21067;-70
2023/08/29 05:00:38;;;;;;;25.45;18.65;;;;;;;25.56;74.71;99642.47;1733172;81;21483;-71
2023/08/29 05:03:07;;;;;;;25.35;17.95;;;;;;;25.64;74.32;99654.34;1733224;83;21023;-69
2023/08/29 05:05:37;;;;;;;29.72;20.00;;;;;;;25.75;74.05;99657.78;1733239;81;21470;-69
2023/08/29 05:08:09;;;;;;;42.45;24.75;;;;;;;25.82;73.89;99656.77;1733224;83;21043;-69
2023/08/29 05:10:43;;;;;;;30.92;20.82;;;;;;;25.90;73.36;99663.03;1733110;83;21019;-69
2023/08/29 05:13:11;;;;;;;28.35;18.17;;;;;;;25.98;72.99;99658.06;1713375;82;21074;-69
2023/08/29 05:15:43;;;;;;;24.45;18.15;;;;;;;26.06;71.51;99657.33;1733126;81;21450;-68
2023/08/29 05:18:13;;;;;;;26.05;18.98;;;;;;;26.15;70.65;99654.59;1733005;81;21457;-74
2023/08/29 05:20:43;;;;;;;34.83;19.73;;;;;;;26.23;70.08;99654.64;1733368;81;21023;-69
2023/08/29 05:23:13;;;;;;;40.45;21.68;;;;;;;26.31;70.07;99659.23;1733280;81;21027;-69
2023/08/29 05:25:42;;;;;;;37.75;20.43;;;;;;;26.38;69.85;99661.05;1733061;81;21027;-69
2023/08/29 05:28:12;;;;;;;36.23;21.62;;;;;;;26.46;69.53;99664.48;1733430;83;20991;-69
2023/08/29 05:30:42;;;;;;;35.03;20.62;;;;;;;26.51;69.09;99663.78;1733343;83;21419;-69
2023/08/29 05:33:13;;;;;;;31.07;20.17;;;;;;;26.57;68.86;99667.28;1733111;81;21097;-70
2023/08/29 05:35:43;;;;;;;30.75;19.55;;;;;;;26.64;68.68;99662.03;1733313;83;21034;-71
2023/08/29 05:38:13;;;;;;;35.03;20.65;;;;;;;26.72;68.41;99664.09;1733232;81;21031;-69
2023/08/29 05:40:43;;;;;;;37.85;21.02;;;;;;;26.77;67.95;99658.33;1678052;83;21011;-69
2023/08/29 05:43:14;;;;;;;29.75;19.42;;;;;;;26.83;67.55;99658.44;1733355;81;21491;-69
2023/08/29 05:45:43;;;;;;;30.90;19.87;;;;;;;26.90;67.27;99658.55;1733224;81;21480;-69
2023/08/29 05:48:12;;;;;;;35.43;19.35;;;;;;;26.95;67.09;99655.59;1733097;81;21491;-73
2023/08/29 05:50:41;;;;;;;29.72;19.90;;;;;;;26.99;66.81;99655.22;1733308;81;21023;-70
2023/08/29 05:53:10;;;;;;;29.07;18.80;;;;;;;27.05;66.54;99658.14;1733323;83;21176;-70
2023/08/29 05:55:39;;;;;;;36.28;19.67;;;;;;;27.10;66.32;99656.59;1733204;83;21015;-71
2023/08/29 05:58:08;;;;;;;26.95;16.75;;;;;;;27.15;66.13;99653.05;1733259;81;21058;-70
2023/08/29 06:00:37;;;;;;;24.85;16.73;;;;;;;27.20;65.60;99640.82;1733342;83;21051;-71
2023/08/29 06:03:17;;;;;;;25.27;16.55;;;;;;;27.25;65.23;99646.30;1733296;83;21069;-71
2023/08/29 06:05:49;;;;;;;28.52;16.48;;;;;;;27.29;64.72;99653.50;1733179;80;21086;-70
2023/08/29 06:08:18;;;;;;;23.00;15.78;;;;;;;27.33;64.44;99653.95;1733359;83;21031;-70
2023/08/29 06:10:48;;;;;;;25.55;16.48;;;;;;;27.36;64.23;99653.88;1733177;81;21020;-69
2023/08/29 06:13:18;;;;;;;25.85;15.55;;;;;;;27.39;64.14;99659.68;1733364;83;21062;-70
2023/08/29 06:15:47;;;;;;;20.52;15.60;;;;;;;27.41;63.83;99665.81;1733054;81;21569;-68
2023/08/29 06:18:18;;;;;;;25.95;16.57;;;;;;;27.44;63.80;99662.91;1733482;83;21102;-71
2023/08/29 06:20:47;;;;;;;27.22;17.67;;;;;;;27.46;63.76;99664.25;1733193;83;21111;-70
2023/08/29 06:23:17;;;;;;;23.60;16.97;;;;;;;27.50;63.79;99664.42;1733192;81;21501;-70
2023/08/29 06:25:48;;;;;;;23.65;17.25;;;;;;;27.55;63.71;99669.06;1733239;83;21011;-69
2023/08/29 06:28:18;;;;;;;23.15;17.40;;;;;;;27.59;63.52;99674.28;1733286;83;20991;-71
2023/08/29 06:30:49;;;;;;;30.50;17.98;;;;;;;27.62;63.40;99668.03;1733165;83;21034;-69
2023/08/29 06:33:19;;;;;;;27.20;17.37;;;;;;;27.66;63.32;99669.03;1733322;83;21015;-71
2023/08/29 06:35:49;;;;;;;23.25;16.35;;;;;;;27.70;63.24;99667.20;1733246;81;21055;-71
2023/08/29 06:38:20;;;;;;;23.92;16.52;;;;;;;27.73;63.36;99665.14;1733080;81;21176;-72
2023/08/29 06:40:58;;;;;;;20.37;16.32;;;;;;;27.76;63.26;99661.67;1733094;81;21034;-70
2023/08/29 06:43:27;;;;;;;22.75;17.25;;;;;;;27.79;62.92;99663.25;1733299;81;21067;-71
2023/08/29 06:45:57;;;;;;;25.08;18.20;;;;;;;27.87;62.69;99657.37;1733294;81;21126;-69
2023/08/29 06:48:27;;;;;;;22.62;17.00;;;;;;;27.95;62.36;99659.94;1733291;81;21019;-70
2023/08/29 06:50:56;;;;;;;23.60;17.45;;;;;;;28.00;62.19;99659.22;1733289;83;21078;-71
2023/08/29 06:53:26;;;;;;;24.23;18.10;;;;;;;28.06;62.06;99657.06;1733275;83;21133;-69
2023/08/29 06:55:56;;;;;;;30.32;19.02;;;;;;;28.13;61.96;99657.97;1733435;81;21019;-70
2023/08/29 06:58:25;;;;;;;25.92;17.65;;;;;;;28.19;61.71;99655.23;1733145;83;21023;-70
2023/08/29 07:00:55;;;;;;;27.07;18.17;;;;;;;28.27;60.97;99661.47;1733250;81;21450;-69
2023/08/29 07:03:24;;;;;;;23.32;17.50;;;;;;;28.43;60.66;99656.13;1733392;83;21007;-70
2023/08/29 07:05:54;;;;;;;27.45;17.92;;;;;;;28.76;60.14;99659.22;1733446;81;21021;-70
2023/08/29 07:08:24;;;;;;;29.37;18.67;;;;;;;29.24;58.99;99656.05;1733247;83;21019;-71
2023/08/29 07:10:53;;;;;;;24.20;18.20;;;;;;;29.72;57.72;99659.88;1733244;81;21042;-71
2023/08/29 07:13:22;;;;;;;30.40;18.37;;;;;;;30.16;56.76;99659.81;1733355;83;21008;-70
2023/08/29 07:15:52;;;;;;;23.18;17.07;;;;;;;30.63;55.53;99662.39;1733318;81;21455;-70
2023/08/29 07:18:21;;;;;;;25.05;17.42;;;;;;;31.01;53.87;99669.17;1733058;81;21082;-70
2023/08/29 07:20:51;;;;;;;26.05;18.20;;;;;;;31.36;52.88;99663.94;1733373;83;21518;-69
2023/08/29 07:23:21;;;;;;;26.73;17.10;;;;;;;31.71;51.53;99662.86;1733125;81;21070;-69
2023/08/29 07:25:50;;;;;;;22.42;16.32;;;;;;;32.00;51.15;99670.84;1733331;83;21039;-70
2023/08/29 07:28:19;;;;;;;27.00;17.77;;;;;;;32.27;50.20;99660.15;1733083;83;21580;-67
2023/08/29 07:30:51;;;;;;;19.57;16.77;;;;;;;32.57;49.37;99664.88;1733139;83;21096;-70
2023/08/29 07:33:20;;;;;;;25.30;16.10;;;;;;;32.84;48.39;99666.05;1733111;83;21030;-68
2023/08/29 07:35:51;;;;;;;27.65;15.95;;;;;;;33.08;47.60;99660.19;1733152;81;21435;-69
2023/08/29 07:38:20;;;;;;;21.52;14.93;;;;;;;33.45;46.84;99661.36;1733084;83;21503;-68
2023/08/29 07:40:51;;;;;;;20.25;16.02;;;;;;;33.81;45.87;99663.61;1733121;83;21011;-69
2023/08/29 07:43:21;;;;;;;25.10;16.05;;;;;;;34.13;44.87;99662.35;1733180;81;21529;-68
2023/08/29 07:45:53;;;;;;;18.92;15.15;;;;;;;34.37;43.91;99664.69;1733168;83;21019;-69
2023/08/29 07:48:22;;;;;;;19.87;15.03;;;;;;;34.54;43.32;99655.12;1733325;83;21102;-69
2023/08/29 07:50:51;;;;;;;24.30;15.78;;;;;;;34.67;42.95;99664.30;1745988;79;21498;-70
2023/08/29 07:53:21;;;;;;;22.93;14.65;;;;;;;34.83;42.70;99662.20;1755474;81;21059;-70
2023/08/29 07:55:52;;;;;;;21.48;14.93;;;;;;;35.04;42.05;99660.94;1751734;81;21098;-68
2023/08/29 07:58:21;;;;;;;20.08;15.55;;;;;;;35.24;41.31;99659.69;1744089;81;21500;-70
2023/08/29 08:00:49;;;;;;;24.98;15.13;;;;;;;35.39;40.64;99664.44;1769824;81;20988;-68
2023/08/29 08:03:18;;;;;;;19.32;14.80;;;;;;;35.56;40.65;99669.59;1743652;82;21070;-72
2023/08/29 08:05:47;;;;;;;22.93;14.93;;;;;;;35.85;40.27;99662.34;1743693;82;21022;-65
2023/08/29 08:08:16;;;;;;;22.77;14.70;;;;;;;36.06;38.96;99663.24;1759963;81;21483;-69
2023/08/29 08:10:45;;;;;;;19.00;14.53;;;;;;;36.17;38.15;99671.33;1706648;84;21091;-67
2023/08/29 08:13:14;;;;;;;18.32;13.78;;;;;;;36.26;37.81;99665.33;1772819;81;21562;-67
2023/08/29 08:15:43;;;;;;;26.55;14.35;;;;;;;36.31;37.27;99666.44;1706436;84;21115;-67
2023/08/29 08:18:11;;;;;;;19.12;13.48;;;;;;;36.38;37.32;99659.39;1772522;80;21420;-67
2023/08/29 08:20:42;;;;;;;14.90;12.95;;;;;;;36.50;36.48;99662.62;1772644;81;21024;-69
2023/08/29 08:23:10;;;;;;;17.62;12.43;;;;;;;36.61;35.34;99662.73;1706402;84;21016;-68
2023/08/29 08:25:39;;;;;;;15.88;11.53;;;;;;;36.69;35.45;99660.99;1752519;81;20981;-68
2023/08/29 08:28:07;;;;;;;14.43;12.00;;;;;;;36.85;34.52;99661.38;1743826;82;20998;-67
2023/08/29 08:30:39;;;;;;;16.42;11.75;;;;;;;37.01;33.33;99657.66;1743822;82;20978;-67
2023/08/29 08:33:08;;;;;;;18.42;12.43;;;;;;;37.21;33.28;99650.52;1743646;81;21088;-68
2023/08/29 08:35:37;;;;;;;17.77;11.95;;;;;;;37.33;32.96;99647.38;1743706;82;21073;-66
2023/08/29 08:38:08;;;;;;;19.35;12.28;;;;;;;37.49;32.82;99646.27;1741607;81;21018;-67
2023/08/29 08:40:39;;;;;;;18.17;12.03;;;;;;;37.69;32.66;99647.62;1743845;82;21025;-65
2023/08/29 08:43:10;;;;;;;15.58;12.80;;;;;;;37.83;32.28;99651.24;1743737;81;21105;-67
2023/08/29 08:45:39;;;;;;;18.95;12.65;;;;;;;37.90;31.94;99649.24;1743845;82;21108;-69
2023/08/29 08:48:08;;;;;;;15.35;12.33;;;;;;;37.87;32.29;99643.50;1743909;81;21065;-68
2023/08/29 08:50:37;;;;;;;15.68;11.15;;;;;;;37.92;32.04;99645.98;1743646;81;21085;-69
2023/08/29 08:53:06;;;;;;;14.83;11.57;;;;;;;37.95;31.60;99645.17;1743824;82;21010;-65
2023/08/29 08:55:35;;;;;;;17.23;12.18;;;;;;;37.99;31.29;99641.73;1743765;81;21085;-67
2023/08/29 08:58:04;;;;;;;18.52;11.80;;;;;;;37.96;31.19;99636.81;1743724;82;20986;-67
2023/08/29 09:00:32;;;;;;;13.55;11.15;;;;;;;37.93;30.85;99642.72;1743883;82;21063;-67
2023/08/29 09:03:02;;;;;;;15.10;11.68;;;;;;;37.68;31.09;99637.41;1743838;82;21111;-65
2023/08/29 09:05:31;;;;;;;12.45;11.08;;;;;;;37.32;31.79;99638.59;1743800;82;21001;-66
2023/08/29 09:08:00;;;;;;;17.57;12.15;;;;;;;37.08;32.27;99635.72;1743722;82;21020;-66
2023/08/29 09:10:35;;;;;;;15.00;12.13;;;;;;;36.81;33.08;99632.80;1743923;81;21048;-67
2023/08/29 09:13:05;;;;;;;18.27;12.33;;;;;;;36.68;33.45;99632.23;1758190;81;21510;-67
2023/08/29 09:15:34;;;;;;;18.17;12.68;;;;;;;36.56;33.85;99632.51;1744028;82;21071;-65
2023/08/29 09:18:04;;;;;;;17.62;12.95;;;;;;;36.48;34.03;99633.64;1743787;82;21023;-66
2023/08/29 09:20:33;;;;;;;16.90;12.70;;;;;;;36.43;34.32;99635.42;1743940;82;21041;-66
2023/08/29 09:23:02;;;;;;;20.08;12.93;;;;;;;36.32;34.08;99638.73;1743601;82;21004;-68
2023/08/29 09:25:30;;;;;;;16.20;12.15;;;;;;;36.14;34.49;99635.02;1744057;82;21047;-67
2023/08/29 09:27:59;;;;;;;16.97;13.10;;;;;;;36.01;34.46;99633.63;1743988;81;21047;-67
2023/08/29 09:30:28;;;;;;;15.30;12.25;;;;;;;35.90;34.81;99639.80;1743855;82;21059;-67
2023/08/29 09:32:56;;;;;;;17.00;11.97;;;;;;;35.84;34.62;99632.80;1743567;82;20989;-68
2023/08/29 09:35:25;;;;;;;17.32;12.03;;;;;;;35.78;34.74;99632.88;1709707;82;21400;-67
2023/08/29 09:37:55;;;;;;;16.48;12.45;;;;;;;35.75;34.95;99632.20;1709475;82;21043;-66
2023/08/29 09:40:24;;;;;;;20.35;12.58;;;;;;;35.77;34.96;99635.52;1743854;81;20977;-66
2023/08/29 09:43:02;;;;;;;16.10;11.80;;;;;;;35.71;35.07;99637.03;1743712;82;21087;-68
2023/08/29 09:45:32;;;;;;;17.87;12.33;;;;;;;35.66;34.93;99634.52;1743909;82;21032;-66
2023/08/29 09:48:08;;;;;;;15.75;12.43;;;;;;;35.66;34.74;99637.36;1743826;82;21099;-67
2023/08/29 09:50:37;;;;;;;19.77;12.10;;;;;;;35.65;34.62;99631.44;1743933;81;21024;-67
2023/08/29 09:53:09;;;;;;;17.42;11.97;;;;;;;35.56;34.17;99631.12;1743742;82;21460;-67
2023/08/29 09:55:43;;;;;;;15.35;11.70;;;;;;;35.40;34.24;99625.38;1743917;82;21012;-66
2023/08/29 09:58:15;;;;;;;15.60;11.85;;;;;;;35.32;34.33;99628.72;1745098;81;21079;-68
2023/08/29 10:00:44;;;;;;;13.95;12.07;;;;;;;35.27;34.09;99626.16;1706438;84;21044;-67
2023/08/29 10:03:12;;;;;;;15.18;11.85;;;;;;;35.21;34.28;99627.09;1772587;80;21557;-68
2023/08/29 10:05:43;;;;;;;17.25;12.30;;;;;;;35.19;34.32;99613.01;1772672;81;21451;-67
2023/08/29 10:08:20;;;;;;;18.25;11.95;;;;;;;35.17;34.48;99622.54;1706532;84;21000;-73
2023/08/29 10:10:49;;;;;;;14.40;11.43;;;;;;;35.16;34.22;99621.72;1772955;81;21070;-66
2023/08/29 10:13:17;;;;;;;14.68;11.20;;;;;;;35.12;33.98;99626.53;1706772;84;21040;-67
2023/08/29 10:15:47;;;;;;;16.15;10.88;;;;;;;35.08;34.24;99619.10;1772642;81;21064;-66
2023/08/29 10:18:16;;;;;;;15.40;11.53;;;;;;;35.07;33.93;99625.40;1776939;80;21019;-65
2023/08/29 10:20:45;;;;;;;14.58;11.20;;;;;;;35.08;33.97;99618.50;1780777;80;21091;-65
2023/08/29 10:23:13;;;;;;;17.42;11.28;;;;;;;35.09;33.54;99627.27;1714191;83;21557;-66
2023/08/29 10:25:43;;;;;;;16.77;10.80;;;;;;;35.08;33.67;99621.35;1781033;80;21083;-66
2023/08/29 10:28:14;;;;;;;14.90;10.80;;;;;;;35.06;33.19;99612.97;1781146;80;21059;-67
2023/08/29 10:30:49;;;;;;;14.38;10.40;;;;;;;35.06;33.28;99618.06;1714211;83;21067;-66
2023/08/29 10:33:19;;;;;;;15.72;11.40;;;;;;;35.08;33.07;99624.80;1781230;80;21082;-66
2023/08/29 10:35:48;;;;;;;18.85;11.75;;;;;;;35.05;32.92;99622.72;1781240;80;21031;-67
2023/08/29 10:38:17;;;;;;;18.05;10.75;;;;;;;34.99;33.21;99621.39;1780779;80;21059;-66
2023/08/29 10:40:46;;;;;;;14.55;11.15;;;;;;;34.99;33.11;99619.36;1714216;83;21087;-65
2023/08/29 10:43:21;;;;;;;14.78;10.93;;;;;;;34.93;33.05;99623.13;1781161;80;21040;-65
2023/08/29 10:45:59;;;;;;;14.07;11.35;;;;;;;34.88;33.03;99612.06;1714339;84;21075;-66
2023/08/29 10:48:46;;;;;;;12.53;10.40;;;;;;;34.80;33.15;99611.69;1781032;80;21051;-68
2023/08/29 10:51:16;;;;;;;14.93;10.82;;;;;;;34.77;33.25;99609.60;1781124;80;21046;-68
2023/08/29 10:53:56;;;;;;;14.33;10.72;;;;;;;34.78;33.17;99609.83;1780952;80;21019;-68
2023/08/29 10:56:27;;;;;;;14.65;11.55;;;;;;;34.73;33.09;99610.14;1714186;84;21068;-68
2023/08/29 10:58:57;;;;;;;21.12;13.90;;;;;;;34.68;33.38;99613.30;1781323;80;21432;-68
2023/08/29 11:01:33;;;;;;;14.40;10.68;;;;;;;34.69;33.15;99610.67;1728503;80;21028;-71
2023/08/29 11:04:13;;;;;;;13.85;10.55;;;;;;;34.72;32.85;99611.94;1782748;79;21035;-67
2023/08/29 11:06:59;;;;;;;13.98;10.55;;;;;;;34.71;32.83;99611.72;1763218;80;21063;-69
2023/08/29 11:09:30;;;;;;;15.43;10.88;;;;;;;34.68;32.59;99612.48;1782527;80;21447;-68
2023/08/29 11:12:09;;;;;;;16.10;11.15;;;;;;;34.65;32.51;99614.06;1782816;80;21019;-69
2023/08/29 11:14:55;;;;;;;12.78;10.90;;;;;;;34.67;32.84;99618.77;1782562;80;20999;-70
2023/08/29 11:17:25;;;;;;;13.80;10.68;;;;;;;34.65;32.80;99618.33;1782664;79;21440;-69
2023/08/29 11:19:56;;;;;;;17.05;10.93;;;;;;;34.64;32.65;99610.39;1787967;80;21011;-69
2023/08/29 11:22:28;;;;;;;12.88;10.58;;;;;;;34.65;32.65;99613.45;1788067;80;21043;-70
2023/08/29 11:24:57;;;;;;;15.45;10.50;;;;;;;34.68;32.27;99614.72;1787948;80;21498;-67
2023/08/29 11:27:28;;;;;;;13.85;11.18;;;;;;;34.67;32.30;99610.23;1770668;80;21067;-70
2023/08/29 11:30:02;;;;;;;14.47;10.25;;;;;;;34.69;32.32;99609.25;1788123;80;21011;-68
2023/08/29 11:32:33;;;;;;;13.78;10.20;;;;;;;34.70;32.15;99608.66;1787812;79;21028;-68